Time;durP1;ratioP1;P1;durP2;ratioP2;P2;SDS_P1;SDS_P2;PMS_P1;PMS_P2;Temp;Humidity;BMP_temperature;BMP_pressure;BME280_temperature;BME280_humidity;BME280_pressure;Samples;Min_cycle;Max_cycle;Signal;HPM_P1;HPM_P2
2023/08/15 00:01:49;;;;;;;5.95;4.28;;;22.00;99.90;;;;;;4964464;28;93854;-76
2023/08/15 00:04:15;;;;;;;9.77;4.80;;;22.00;99.80;;;;;;4965817;28;93081;-76
2023/08/15 00:06:40;;;;;;;6.45;4.30;;;22.00;99.80;;;;;;4965379;28;93001;-76
2023/08/15 00:09:06;;;;;;;5.18;4.25;;;22.00;99.60;;;;;;4964841;28;92786;-76
2023/08/15 00:11:32;;;;;;;10.82;5.10;;;21.90;99.60;;;;;;4965049;28;95007;-76
2023/08/15 00:13:57;;;;;;;11.70;4.97;;;21.90;99.90;;;;;;4964742;28;93618;-76
2023/08/15 00:16:23;;;;;;;8.88;4.80;;;21.90;99.90;;;;;;4965038;28;92877;-76
2023/08/15 00:18:49;;;;;;;10.80;4.78;;;21.80;99.80;;;;;;4964638;28;92712;-76
2023/08/15 00:21:14;;;;;;;5.63;4.10;;;21.80;99.90;;;;;;4964348;28;93601;-76
2023/08/15 00:23:40;;;;;;;9.60;4.43;;;21.70;99.90;;;;;;4964232;28;93575;-76
2023/08/15 00:26:05;;;;;;;7.80;4.68;;;21.70;99.90;;;;;;4965726;28;93114;-76
2023/08/15 00:28:31;;;;;;;7.88;4.63;;;21.60;99.90;;;;;;4949098;28;92111;-76
2023/08/15 00:30:57;;;;;;;12.23;5.10;;;21.50;99.90;;;;;;4966545;28;93655;-77
2023/08/15 00:33:22;;;;;;;9.07;4.72;;;21.50;99.90;;;;;;4954875;28;96461;-76
2023/08/15 00:35:48;;;;;;;8.52;4.32;;;21.50;99.90;;;;;;4964431;28;93632;-76
2023/08/15 00:38:14;;;;;;;10.77;4.20;;;21.50;99.90;;;;;;4964739;28;92613;-76
2023/08/15 00:40:40;;;;;;;7.47;4.45;;;21.40;99.90;;;;;;4963404;28;94330;-76
2023/08/15 00:43:06;;;;;;;11.55;5.78;;;21.40;99.90;;;;;;4947081;28;96062;-76
2023/08/15 00:45:34;;;;;;;18.30;9.23;;;21.30;99.90;;;;;;4965472;28;92619;-76
2023/08/15 00:47:59;;;;;;;16.98;8.35;;;21.40;99.90;;;;;;4965555;28;92636;-76
2023/08/15 00:50:25;;;;;;;10.35;5.07;;;21.40;99.90;;;;;;4964955;28;93380;-76
2023/08/15 00:52:52;;;;;;;7.07;4.97;;;21.40;99.90;;;;;;4948269;28;94777;-76
2023/08/15 00:55:18;;;;;;;10.95;5.40;;;21.40;99.90;;;;;;4947152;28;93084;-76
2023/08/15 00:57:43;;;;;;;10.82;5.45;;;21.30;99.90;;;;;;4964694;28;92674;-76
2023/08/15 01:00:11;;;;;;;12.73;4.97;;;21.20;99.90;;;;;;4964537;28;94561;-76
2023/08/15 01:02:37;;;;;;;18.17;5.85;;;21.20;99.90;;;;;;4964174;28;93666;-75
2023/08/15 01:05:04;;;;;;;11.10;4.95;;;21.10;99.80;;;;;;4963684;28;93986;-76
2023/08/15 01:07:30;;;;;;;10.57;5.28;;;21.00;99.80;;;;;;4963456;28;92399;-76
2023/08/15 01:09:56;;;;;;;11.57;5.20;;;21.00;99.60;;;;;;4962303;28;92665;-76
2023/08/15 01:12:35;;;;;;;12.55;4.70;;;21.00;99.40;;;;;;4963701;28;93299;-76
2023/08/15 01:15:12;;;;;;;13.35;4.93;;;20.90;99.00;;;;;;4966527;28;92900;-76
2023/08/15 01:17:45;;;;;;;11.52;4.60;;;20.80;98.90;;;;;;4966217;28;91444;-76
2023/08/15 01:20:15;;;;;;;12.35;4.63;;;20.80;98.80;;;;;;4963335;28;94208;-76
2023/08/15 01:22:46;;;;;;;12.85;4.60;;;20.80;98.50;;;;;;4946521;28;97230;-76
2023/08/15 01:25:13;;;;;;;14.43;4.47;;;20.70;98.20;;;;;;4965259;28;93645;-76
2023/08/15 01:27:39;;;;;;;16.02;4.60;;;20.60;97.90;;;;;;4964146;28;92805;-76
2023/08/15 01:30:05;;;;;;;14.68;4.70;;;20.50;97.90;;;;;;4964493;28;93645;-76
2023/08/15 01:32:52;;;;;;;11.18;4.28;;;20.50;98.00;;;;;;4965715;28;98047;-76
2023/08/15 01:35:28;;;;;;;13.60;4.28;;;20.40;98.40;;;;;;4965191;28;92472;-75
2023/08/15 01:38:15;;;;;;;11.40;4.18;;;20.40;98.40;;;;;;4964059;28;93078;-76
2023/08/15 01:40:43;;;;;;;10.50;4.55;;;20.40;98.40;;;;;;4963312;28;93167;-76
2023/08/15 01:43:12;;;;;;;11.38;4.30;;;20.40;98.50;;;;;;4964410;28;93937;-75
2023/08/15 01:45:38;;;;;;;15.25;4.35;;;20.40;98.40;;;;;;4963575;28;93090;-75
2023/08/15 01:48:03;;;;;;;9.15;3.78;;;20.30;98.40;;;;;;4965241;28;92765;-76
2023/08/15 01:50:29;;;;;;;10.43;3.72;;;20.40;98.80;;;;;;4961954;28;94387;-75
2023/08/15 01:52:55;;;;;;;11.23;3.42;;;20.30;98.00;;;;;;4964198;28;94865;-75
2023/08/15 01:55:20;;;;;;;16.10;3.03;;;20.30;98.30;;;;;;4963116;28;92742;-75
2023/08/15 01:57:46;;;;;;;9.35;2.70;;;20.20;97.80;;;;;;4962397;28;92251;-75
2023/08/15 02:00:12;;;;;;;11.52;2.60;;;20.20;97.10;;;;;;4946439;28;96884;-76
2023/08/15 02:02:37;;;;;;;9.73;2.55;;;20.10;97.10;;;;;;4964694;28;93223;-76
2023/08/15 02:05:03;;;;;;;11.30;3.55;;;20.00;97.20;;;;;;4962928;28;92820;-76
2023/08/15 02:07:29;;;;;;;13.25;3.35;;;20.00;97.60;;;;;;4964558;28;92108;-76
2023/08/15 02:09:54;;;;;;;16.40;3.67;;;19.90;97.90;;;;;;4962281;28;93841;-76
2023/08/15 02:12:20;;;;;;;9.15;2.80;;;19.80;98.40;;;;;;4963289;28;93729;-76
2023/08/15 02:14:46;;;;;;;11.00;2.70;;;19.80;98.50;;;;;;4963776;28;93630;-76
2023/08/15 02:17:11;;;;;;;10.90;2.58;;;19.70;98.10;;;;;;4964626;28;92971;-76
2023/08/15 02:19:37;;;;;;;8.75;2.83;;;19.60;97.70;;;;;;4962344;28;92876;-76
2023/08/15 02:22:02;;;;;;;12.75;3.17;;;19.60;98.30;;;;;;4962920;28;93166;-76
2023/08/15 02:24:29;;;;;;;13.15;2.83;;;19.60;97.80;;;;;;4962952;28;92721;-76
2023/08/15 02:26:55;;;;;;;10.27;2.70;;;19.70;98.20;;;;;;4965200;28;93044;-76
2023/08/15 02:29:20;;;;;;;12.52;3.22;;;19.70;98.20;;;;;;4961292;28;93291;-76
2023/08/15 02:31:47;;;;;;;11.68;2.33;;;19.70;97.90;;;;;;4964295;28;92476;-76
2023/08/15 02:34:15;;;;;;;10.85;2.70;;;19.70;97.70;;;;;;4962270;28;92504;-76
2023/08/15 02:36:43;;;;;;;9.35;2.63;;;19.60;97.80;;;;;;4962213;28;93017;-76
2023/08/15 02:39:08;;;;;;;11.55;3.00;;;19.60;97.70;;;;;;4963442;28;95019;-76
2023/08/15 02:41:34;;;;;;;9.25;2.30;;;19.50;98.00;;;;;;4962631;28;94480;-76
2023/08/15 02:44:00;;;;;;;11.10;2.67;;;19.50;98.10;;;;;;4963259;28;92766;-76
2023/08/15 02:46:28;;;;;;;9.27;2.63;;;19.40;98.10;;;;;;4962909;28;93587;-76
2023/08/15 02:48:53;;;;;;;9.35;2.40;;;19.40;98.30;;;;;;4944514;28;97231;-75
2023/08/15 02:51:19;;;;;;;7.00;2.45;;;19.40;98.10;;;;;;4962955;28;93697;-76
2023/08/15 02:53:45;;;;;;;6.95;2.17;;;19.30;98.20;;;;;;4964610;28;92787;-75
2023/08/15 02:56:10;;;;;;;9.23;2.20;;;19.30;98.40;;;;;;4946545;28;92331;-76
2023/08/15 02:58:36;;;;;;;8.30;2.58;;;19.30;98.40;;;;;;4963476;28;93739;-75
2023/08/15 03:01:02;;;;;;;12.40;2.90;;;19.30;98.70;;;;;;4962890;28;93731;-76
2023/08/15 03:03:29;;;;;;;12.93;2.35;;;19.30;98.90;;;;;;4963483;28;93259;-75
2023/08/15 03:06:03;;;;;;;10.80;2.83;;;19.30;99.10;;;;;;4953731;28;92849;-76
2023/08/15 03:08:32;;;;;;;9.32;2.60;;;19.20;99.00;;;;;;4962449;28;92723;-76
2023/08/15 03:11:00;;;;;;;10.50;2.50;;;19.20;99.00;;;;;;4962399;28;93383;-76
2023/08/15 03:13:26;;;;;;;11.07;2.53;;;19.20;99.20;;;;;;4963128;28;92721;-76
2023/08/15 03:15:53;;;;;;;9.52;2.00;;;19.10;99.10;;;;;;4944445;28;92833;-76
2023/08/15 03:18:19;;;;;;;12.60;2.58;;;19.10;99.20;;;;;;4943954;28;96581;-76
2023/08/15 03:20:54;;;;;;;6.25;2.40;;;19.10;99.10;;;;;;4963238;28;93864;-76
2023/08/15 03:23:19;;;;;;;9.45;2.90;;;19.10;99.20;;;;;;4963403;28;92345;-76
2023/08/15 03:25:56;;;;;;;11.40;2.65;;;19.10;99.00;;;;;;4962881;28;99518;-76
2023/08/15 03:28:22;;;;;;;10.38;2.85;;;19.10;99.50;;;;;;4943715;28;97835;-75
2023/08/15 03:30:47;;;;;;;9.93;2.47;;;19.00;99.60;;;;;;4962499;28;94331;-75
2023/08/15 03:33:14;;;;;;;7.93;2.40;;;19.00;99.60;;;;;;4963273;28;92825;-76
2023/08/15 03:35:47;;;;;;;11.88;3.22;;;19.00;99.70;;;;;;4966594;28;92670;-76
2023/08/15 03:38:20;;;;;;;13.88;4.50;;;19.00;99.70;;;;;;4965861;28;92838;-76
2023/08/15 03:40:48;;;;;;;8.93;2.63;;;19.00;99.80;;;;;;4965384;28;94322;-76
2023/08/15 03:43:13;;;;;;;10.43;2.85;;;18.90;99.80;;;;;;4968122;28;92742;-76
2023/08/15 03:45:40;;;;;;;16.02;2.92;;;18.90;99.80;;;;;;4964460;28;91943;-76
2023/08/15 03:48:09;;;;;;;11.15;3.28;;;18.90;99.90;;;;;;4966266;28;94482;-76
2023/08/15 03:50:35;;;;;;;10.95;3.72;;;18.90;99.90;;;;;;4966884;28;93999;-76
2023/08/15 03:53:01;;;;;;;9.73;3.58;;;18.80;99.90;;;;;;4965822;28;93791;-76
2023/08/15 03:55:28;;;;;;;11.38;3.20;;;18.80;99.90;;;;;;4963574;28;92683;-76
2023/08/15 03:57:54;;;;;;;12.32;4.07;;;18.80;99.90;;;;;;4965267;28;94081;-76
2023/08/15 04:00:20;;;;;;;12.93;3.92;;;18.70;99.90;;;;;;4966013;28;94593;-76
2023/08/15 04:02:46;;;;;;;12.45;3.88;;;18.70;99.90;;;;;;4967719;28;93000;-75
2023/08/15 04:05:12;;;;;;;15.68;4.18;;;18.70;99.90;;;;;;4966196;28;92949;-76
2023/08/15 04:07:39;;;;;;;10.70;3.78;;;18.70;99.90;;;;;;4964701;28;93675;-76
2023/08/15 04:10:05;;;;;;;8.63;3.20;;;18.70;99.90;;;;;;4967005;28;93286;-76
2023/08/15 04:12:33;;;;;;;9.98;3.50;;;18.70;99.80;;;;;;4963810;28;93572;-76
2023/08/15 04:14:59;;;;;;;10.38;4.32;;;18.70;99.90;;;;;;4967111;28;92774;-76
2023/08/15 04:17:25;;;;;;;16.50;4.05;;;18.70;99.90;;;;;;4965021;28;94186;-76
2023/08/15 04:19:51;;;;;;;17.70;5.45;;;18.70;99.90;;;;;;4966247;28;93745;-76
2023/08/15 04:22:17;;;;;;;10.55;4.10;;;18.60;99.90;;;;;;4968588;28;93207;-76
2023/08/15 04:24:42;;;;;;;10.05;4.03;;;18.60;99.90;;;;;;4965840;28;92881;-76
2023/08/15 04:27:08;;;;;;;10.88;4.22;;;18.60;99.90;;;;;;4964074;28;93112;-77
2023/08/15 04:29:33;;;;;;;10.70;3.63;;;18.60;99.90;;;;;;4966053;28;92841;-76
2023/08/15 04:31:59;;;;;;;12.43;3.55;;;18.60;99.90;;;;;;4967028;28;92635;-76
2023/08/15 04:34:25;;;;;;;10.70;4.07;;;18.60;99.90;;;;;;4967671;28;91834;-76
2023/08/15 04:36:51;;;;;;;14.20;5.53;;;18.60;99.90;;;;;;4963140;28;93120;-76
2023/08/15 04:39:18;;;;;;;13.50;3.67;;;18.60;99.90;;;;;;4966961;28;93571;-76
2023/08/15 04:41:47;;;;;;;16.23;4.15;;;18.50;99.90;;;;;;4967195;28;93755;-76
2023/08/15 04:44:12;;;;;;;8.93;3.83;;;18.60;99.90;;;;;;4964969;28;93431;-76
2023/08/15 04:46:38;;;;;;;11.52;3.45;;;18.60;99.90;;;;;;4966135;28;92892;-76
2023/08/15 04:49:04;;;;;;;10.50;4.60;;;18.60;99.90;;;;;;4963651;28;92756;-76
2023/08/15 04:51:30;;;;;;;8.70;3.63;;;18.60;99.90;;;;;;4965564;28;92482;-76
2023/08/15 04:53:55;;;;;;;11.77;4.15;;;18.60;99.90;;;;;;4948680;28;92929;-76
2023/08/15 04:56:21;;;;;;;10.43;4.40;;;18.60;99.90;;;;;;4964339;28;93215;-76
2023/08/15 04:58:47;;;;;;;7.65;3.40;;;18.60;99.90;;;;;;4965153;28;93414;-76
2023/08/15 05:01:13;;;;;;;15.85;4.03;;;18.60;99.90;;;;;;4965376;28;92755;-76
2023/08/15 05:03:39;;;;;;;11.02;4.43;;;18.70;99.90;;;;;;4962629;28;92741;-76
2023/08/15 05:06:04;;;;;;;8.60;3.70;;;18.60;99.90;;;;;;4964875;28;94492;-76
2023/08/15 05:08:30;;;;;;;11.18;3.85;;;18.60;99.90;;;;;;4964919;28;100435;-76
2023/08/15 05:10:56;;;;;;;9.90;3.65;;;18.60;99.90;;;;;;4964531;28;92460;-75
2023/08/15 05:13:22;;;;;;;13.25;4.80;;;18.60;99.90;;;;;;4946776;28;92745;-76
2023/08/15 05:15:47;;;;;;;15.43;4.53;;;18.60;99.90;;;;;;4965367;28;93544;-76
2023/08/15 05:18:15;;;;;;;10.07;4.20;;;18.60;99.90;;;;;;4965704;28;93406;-76
2023/08/15 05:20:41;;;;;;;10.23;3.72;;;18.60;99.90;;;;;;4965239;28;92555;-76
2023/08/15 05:23:07;;;;;;;11.90;4.38;;;18.60;99.90;;;;;;4962877;28;92079;-76
2023/08/15 05:25:33;;;;;;;11.23;4.35;;;18.60;99.90;;;;;;4965461;28;93623;-76
2023/08/15 05:28:03;;;;;;;14.23;4.72;;;18.60;99.90;;;;;;4947124;28;96315;-76
2023/08/15 05:30:31;;;;;;;14.93;4.53;;;18.60;99.90;;;;;;4946338;28;94972;-76
2023/08/15 05:32:56;;;;;;;10.23;4.65;;;18.70;99.90;;;;;;4965904;28;92708;-76
2023/08/15 05:35:22;;;;;;;13.55;4.20;;;18.60;99.90;;;;;;4964251;28;94042;-76
2023/08/15 05:37:48;;;;;;;12.23;3.80;;;18.60;99.90;;;;;;4962937;28;93190;-76
2023/08/15 05:40:13;;;;;;;12.05;4.30;;;18.60;99.90;;;;;;4946447;28;92697;-76
2023/08/15 05:42:39;;;;;;;14.55;5.10;;;18.60;99.90;;;;;;4946271;28;92234;-76
2023/08/15 05:45:05;;;;;;;14.18;4.28;;;18.60;99.90;;;;;;4967255;28;93365;-76
2023/08/15 05:47:31;;;;;;;16.05;4.68;;;18.70;99.90;;;;;;4965695;28;97746;-76
2023/08/15 05:49:57;;;;;;;11.63;4.28;;;18.70;99.90;;;;;;4965744;28;92803;-76
2023/08/15 05:52:22;;;;;;;8.65;3.42;;;18.70;99.90;;;;;;4965120;28;92865;-76
2023/08/15 05:54:48;;;;;;;12.90;3.67;;;18.80;99.90;;;;;;4952796;28;97154;-76
2023/08/15 05:57:14;;;;;;;11.23;3.90;;;18.80;99.90;;;;;;4963904;28;93624;-76
2023/08/15 05:59:39;;;;;;;12.52;4.60;;;18.90;99.80;;;;;;4964555;28;92945;-76
2023/08/15 06:02:06;;;;;;;13.32;4.28;;;18.90;99.60;;;;;;4964929;28;100573;-76
2023/08/15 06:04:32;;;;;;;12.35;4.13;;;18.90;99.50;;;;;;4946225;28;96736;-76
2023/08/15 06:06:57;;;;;;;12.20;4.00;;;18.90;99.50;;;;;;4964033;28;93437;-76
2023/08/15 06:09:23;;;;;;;10.55;3.67;;;19.00;99.40;;;;;;4966255;28;92834;-78
2023/08/15 06:11:50;;;;;;;9.73;3.53;;;19.00;99.40;;;;;;4963147;28;92297;-76
2023/08/15 06:14:18;;;;;;;10.20;3.75;;;19.00;99.40;;;;;;4964937;28;93861;-76
2023/08/15 06:16:44;;;;;;;9.48;3.28;;;19.10;99.50;;;;;;4945125;28;95096;-77
2023/08/15 06:19:10;;;;;;;12.48;3.38;;;19.20;99.50;;;;;;4964246;28;93495;-76
2023/08/15 06:21:35;;;;;;;11.82;3.22;;;19.30;99.40;;;;;;4964950;28;92699;-76
2023/08/15 06:24:01;;;;;;;11.43;3.30;;;19.40;99.20;;;;;;4963886;28;93527;-76
2023/08/15 06:26:27;;;;;;;11.93;3.45;;;19.40;99.10;;;;;;4963292;28;93485;-76
2023/08/15 06:28:52;;;;;;;8.48;3.28;;;19.50;99.10;;;;;;4963555;28;92479;-76
2023/08/15 06:31:18;;;;;;;13.02;3.17;;;19.60;98.20;;;;;;4961591;28;92499;-76
2023/08/15 06:33:43;;;;;;;12.30;2.83;;;19.60;98.10;;;;;;4944613;28;95920;-76
2023/08/15 06:36:09;;;;;;;10.20;2.97;;;19.70;98.20;;;;;;4962932;28;93612;-77
2023/08/15 06:38:35;;;;;;;12.93;3.20;;;19.80;97.80;;;;;;4965393;28;92651;-76
2023/08/15 06:41:02;;;;;;;12.48;3.33;;;20.00;98.50;;;;;;4962974;28;92878;-76
2023/08/15 06:43:28;;;;;;;9.40;2.90;;;20.10;98.60;;;;;;4945380;28;95250;-76
2023/08/15 06:45:54;;;;;;;13.70;3.00;;;20.20;98.00;;;;;;4946317;28;96542;-76
2023/08/15 06:48:20;;;;;;;9.20;2.80;;;20.20;97.70;;;;;;4964333;28;92814;-78
2023/08/15 06:50:45;;;;;;;11.30;2.55;;;20.30;97.70;;;;;;4965713;28;92742;-80
2023/08/15 06:53:11;;;;;;;8.73;2.95;;;20.40;97.20;;;;;;4963750;28;93312;-80
2023/08/15 06:55:37;;;;;;;6.88;2.70;;;20.40;97.30;;;;;;4963949;28;93047;-80
2023/08/15 06:58:03;;;;;;;16.35;2.70;;;20.50;96.50;;;;;;4947698;28;93043;-80
2023/08/15 07:00:29;;;;;;;8.88;2.25;;;20.60;96.60;;;;;;4966805;28;92130;-80
2023/08/15 07:02:55;;;;;;;11.00;2.40;;;20.70;96.30;;;;;;4965635;28;94180;-80
2023/08/15 07:05:21;;;;;;;10.73;2.55;;;20.70;96.30;;;;;;4947922;28;96490;-81
2023/08/15 07:07:46;;;;;;;8.10;2.38;;;20.80;95.80;;;;;;4967073;28;93921;-80
2023/08/15 07:10:12;;;;;;;9.38;2.72;;;20.80;96.10;;;;;;4953021;28;92909;-80
2023/08/15 07:12:38;;;;;;;9.50;2.17;;;20.90;96.10;;;;;;4948742;28;96873;-79
2023/08/15 07:15:04;;;;;;;8.40;2.65;;;21.00;96.40;;;;;;4954094;28;96319;-78
2023/08/15 07:17:30;;;;;;;12.90;2.60;;;21.10;96.20;;;;;;4950941;28;92987;-79
2023/08/15 07:19:56;;;;;;;8.98;2.92;;;21.20;95.60;;;;;;4965209;28;92634;-79
2023/08/15 07:22:22;;;;;;;11.32;2.25;;;21.40;95.30;;;;;;4963304;28;97039;-78
2023/08/15 07:24:48;;;;;;;6.80;2.40;;;21.50;95.30;;;;;;4965502;28;94274;-79
2023/08/15 07:27:13;;;;;;;4.88;1.83;;;21.60;95.00;;;;;;4970027;28;92994;-79
2023/08/15 07:29:39;;;;;;;7.53;2.05;;;21.80;94.70;;;;;;4970999;28;92683;-79
2023/08/15 07:32:06;;;;;;;9.70;2.65;;;21.90;94.30;;;;;;4950948;28;98104;-79
2023/08/15 07:34:32;;;;;;;5.45;1.75;;;22.10;94.90;;;;;;4951908;28;96792;-78
2023/08/15 07:36:57;;;;;;;7.82;2.08;;;22.30;94.80;;;;;;4966096;28;92352;-79
2023/08/15 07:39:23;;;;;;;9.45;1.77;;;22.50;94.40;;;;;;4969597;28;93248;-79
2023/08/15 07:41:49;;;;;;;9.68;1.70;;;22.70;94.30;;;;;;4961613;28;96966;-79
2023/08/15 07:44:15;;;;;;;4.72;1.45;;;22.80;93.90;;;;;;4969611;28;93224;-79
2023/08/15 07:46:41;;;;;;;4.70;1.55;;;23.00;91.30;;;;;;4969936;28;92250;-79
2023/08/15 07:49:06;;;;;;;3.85;1.05;;;23.20;92.00;;;;;;4967246;28;91518;-79
2023/08/15 07:51:32;;;;;;;5.22;1.55;;;23.30;91.60;;;;;;4967629;28;93920;-78
2023/08/15 07:53:58;;;;;;;8.73;1.67;;;23.50;91.30;;;;;;4968255;28;93339;-78
2023/08/15 07:56:23;;;;;;;11.10;2.28;;;23.60;90.90;;;;;;4970458;28;93675;-78
2023/08/15 07:58:50;;;;;;;5.40;1.95;;;23.70;91.30;;;;;;4951552;28;92398;-79
2023/08/15 08:01:15;;;;;;;5.65;1.90;;;23.80;91.10;;;;;;4959167;28;95138;-78
2023/08/15 08:03:42;;;;;;;4.95;1.55;;;24.00;90.70;;;;;;4949723;28;94670;-78
2023/08/15 08:06:09;;;;;;;10.35;1.88;;;24.10;90.70;;;;;;4969064;28;92615;-79
2023/08/15 08:08:34;;;;;;;5.18;1.48;;;24.30;90.10;;;;;;4970547;28;92758;-79
2023/08/15 08:11:00;;;;;;;6.10;1.40;;;24.40;88.20;;;;;;4966010;28;94552;-78
2023/08/15 08:13:26;;;;;;;5.07;1.23;;;24.60;87.40;;;;;;4968498;28;92982;-79
2023/08/15 08:15:51;;;;;;;3.85;1.08;;;24.60;86.20;;;;;;4947596;28;92753;-79
2023/08/15 08:18:17;;;;;;;5.38;1.33;;;24.80;87.30;;;;;;4968198;28;92655;-78
2023/08/15 08:20:43;;;;;;;5.43;1.50;;;25.00;85.60;;;;;;4965919;28;96616;-80
2023/08/15 08:23:08;;;;;;;7.90;1.40;;;25.20;86.30;;;;;;4946586;28;97748;-78
2023/08/15 08:25:34;;;;;;;6.03;1.48;;;25.30;85.70;;;;;;4966286;28;92791;-78
2023/08/15 08:28:00;;;;;;;6.97;1.02;;;25.40;85.10;;;;;;4947870;28;92653;-78
2023/08/15 08:30:26;;;;;;;4.38;1.27;;;25.50;82.90;;;;;;4963419;28;97081;-78
2023/08/15 08:32:51;;;;;;;7.72;1.35;;;25.60;82.90;;;;;;4965147;28;93419;-77
2023/08/15 08:35:17;;;;;;;3.72;1.30;;;25.70;83.10;;;;;;4963797;28;92634;-78
2023/08/15 08:37:45;;;;;;;3.88;1.00;;;25.90;81.40;;;;;;4965783;28;91828;-78
2023/08/15 08:40:12;;;;;;;5.07;1.10;;;25.90;80.30;;;;;;4972171;28;95888;-77
2023/08/15 08:42:40;;;;;;;4.88;1.20;;;26.00;80.50;;;;;;4946458;28;96468;-77
2023/08/15 08:45:08;;;;;;;3.47;0.80;;;26.10;78.50;;;;;;4965118;28;93703;-77
2023/08/15 08:47:36;;;;;;;3.70;1.35;;;26.20;79.80;;;;;;4972076;28;92555;-77
2023/08/15 08:50:05;;;;;;;5.78;1.05;;;26.30;80.50;;;;;;4954686;28;96905;-77
2023/08/15 08:52:31;;;;;;;2.55;0.80;;;26.50;78.60;;;;;;4965817;28;93052;-78
2023/08/15 08:54:57;;;;;;;4.78;1.25;;;26.70;79.90;;;;;;4947452;28;92428;-77
2023/08/15 08:57:26;;;;;;;2.55;1.00;;;26.80;76.10;;;;;;4948833;28;92865;-76
2023/08/15 08:59:55;;;;;;;3.53;1.00;;;27.00;77.10;;;;;;4965155;28;95376;-76
2023/08/15 09:02:22;;;;;;;3.30;1.30;;;27.10;75.90;;;;;;4965862;28;93634;-76
2023/08/15 09:04:48;;;;;;;4.38;1.38;;;27.20;76.50;;;;;;4947538;28;92618;-76
2023/08/15 09:07:15;;;;;;;3.58;1.15;;;27.30;75.70;;;;;;4966011;28;92836;-77
2023/08/15 09:09:41;;;;;;;4.72;0.93;;;27.50;77.60;;;;;;4964483;28;94246;-77
2023/08/15 09:12:07;;;;;;;5.38;1.35;;;27.60;74.10;;;;;;4964316;28;97742;-76
2023/08/15 09:14:40;;;;;;;2.80;0.90;;;27.60;75.30;;;;;;4965361;28;92277;-77
2023/08/15 09:17:06;;;;;;;4.22;0.80;;;27.70;73.30;;;;;;4946268;28;92807;-76
2023/08/15 09:19:39;;;;;;;3.45;0.70;;;27.90;75.60;;;;;;4962842;28;96732;-76
2023/08/15 09:22:05;;;;;;;4.97;1.33;;;28.00;73.00;;;;;;4965595;28;93190;-76
2023/08/15 09:24:30;;;;;;;4.65;1.13;;;28.10;72.50;;;;;;4962692;28;92730;-77
2023/08/15 09:26:56;;;;;;;5.38;1.23;;;28.20;70.10;;;;;;4964901;28;92062;-77
2023/08/15 09:29:22;;;;;;;2.22;0.75;;;28.20;69.30;;;;;;4963381;28;93407;-77
2023/08/15 09:31:49;;;;;;;3.85;0.90;;;28.30;74.50;;;;;;4963655;28;93440;-77
2023/08/15 09:34:15;;;;;;;2.88;1.08;;;28.60;71.90;;;;;;4963212;28;101206;-77
2023/08/15 09:36:41;;;;;;;4.88;0.95;;;28.70;70.90;;;;;;4963729;28;92920;-77
2023/08/15 09:39:08;;;;;;;2.38;0.70;;;28.70;72.80;;;;;;4947360;28;96825;-77
2023/08/15 09:41:39;;;;;;;4.20;0.70;;;28.80;71.20;;;;;;4961981;28;95456;-77
2023/08/15 09:44:05;;;;;;;2.42;0.93;;;29.00;70.30;;;;;;4962835;28;92871;-77
2023/08/15 09:46:32;;;;;;;9.40;1.05;;;29.00;65.80;;;;;;4964886;28;93002;-77
2023/08/15 09:48:58;;;;;;;2.85;0.98;;;28.90;67.30;;;;;;4963447;28;95376;-77
2023/08/15 09:51:25;;;;;;;2.70;0.80;;;28.90;67.60;;;;;;4964772;28;92114;-76
2023/08/15 09:53:52;;;;;;;4.47;1.20;;;28.90;66.30;;;;;;4966197;28;92741;-77
2023/08/15 09:56:20;;;;;;;5.07;0.95;;;28.70;64.90;;;;;;4961117;28;92708;-77
2023/08/15 09:58:45;;;;;;;5.47;1.20;;;28.70;65.20;;;;;;4954014;28;96217;-77
2023/08/15 10:01:15;;;;;;;3.88;1.10;;;28.70;67.20;;;;;;4964800;28;93197;-77
2023/08/15 10:03:42;;;;;;;3.53;1.52;;;28.80;67.90;;;;;;4965550;28;93068;-77
2023/08/15 10:06:09;;;;;;;4.93;1.20;;;29.00;68.70;;;;;;4965562;28;92547;-76
2023/08/15 10:08:39;;;;;;;4.40;1.00;;;29.10;64.90;;;;;;4966780;28;93592;-77
2023/08/15 10:11:10;;;;;;;5.63;0.95;;;29.00;63.50;;;;;;4963581;28;96469;-78
2023/08/15 10:13:39;;;;;;;2.33;0.60;;;29.00;64.10;;;;;;4945989;28;92494;-77
2023/08/15 10:16:08;;;;;;;3.90;1.02;;;29.00;66.90;;;;;;4947099;28;92472;-77
2023/08/15 10:18:35;;;;;;;2.75;0.65;;;29.20;65.50;;;;;;4970809;28;96972;-77
2023/08/15 10:21:01;;;;;;;2.95;0.98;;;29.10;63.60;;;;;;4963122;28;93334;-77
2023/08/15 10:23:31;;;;;;;6.55;1.30;;;29.10;65.40;;;;;;4945566;28;93670;-77
2023/08/15 10:25:58;;;;;;;5.25;1.33;;;29.20;64.50;;;;;;4966489;28;92303;-78
2023/08/15 10:28:27;;;;;;;8.10;1.60;;;29.10;62.70;;;;;;4965663;28;94266;-77
2023/08/15 10:30:57;;;;;;;4.13;0.95;;;29.10;63.80;;;;;;4966209;28;93596;-77
2023/08/15 10:33:28;;;;;;;8.48;1.75;;;29.00;65.20;;;;;;4953841;28;92647;-77
2023/08/15 10:35:54;;;;;;;5.75;1.13;;;28.90;64.30;;;;;;4963599;28;92774;-77
2023/08/15 10:38:52;;;;;;;20.00;1.73;;;28.80;64.70;;;;;;4946127;28;97032;-77
2023/08/15 10:41:19;;;;;;;3.80;0.88;;;28.70;64.40;;;;;;4955547;28;94931;-77
2023/08/15 10:43:49;;;;;;;2.65;1.05;;;28.80;66.40;;;;;;4967169;28;92741;-77
2023/08/15 10:46:29;;;;;;;4.90;1.38;;;28.80;65.60;;;;;;4949327;28;92758;-77
2023/08/15 10:49:13;;;;;;;4.32;1.10;;;28.90;64.10;;;;;;4973424;28;97870;-77
2023/08/15 10:51:41;;;;;;;;;;;28.90;66.80;;;;;;4958017;28;94027;-77
2023/08/15 10:54:14;;;;;;;11.40;3.05;;;28.90;64.10;;;;;;4951271;28;92546;-78
2023/08/15 10:56:41;;;;;;;;;;;29.00;64.80;;;;;;4968874;28;92627;-76
2023/08/15 10:59:14;;;;;;;4.65;0.80;;;29.00;62.30;;;;;;4960559;28;96511;-77
2023/08/15 11:01:40;;;;;;;;;;;28.80;63.30;;;;;;4969429;28;95230;-77
2023/08/15 11:04:10;;;;;;;3.20;1.00;;;28.70;63.50;;;;;;4967352;28;92800;-77
2023/08/15 11:06:51;;;;;;;7.65;1.40;;;28.60;62.70;;;;;;4968732;28;92188;-76
2023/08/15 11:09:17;;;;;;;4.38;1.02;;;28.50;63.60;;;;;;4955650;28;96123;-76
2023/08/15 11:11:44;;;;;;;2.03;0.88;;;28.50;64.20;;;;;;4947906;28;96964;-77
2023/08/15 11:14:22;;;;;;;6.30;1.25;;;28.50;65.30;;;;;;4947104;28;93615;-77
2023/08/15 11:16:48;;;;;;;4.03;0.70;;;28.50;65.80;;;;;;4966315;28;92251;-77
2023/08/15 11:19:16;;;;;;;2.58;0.95;;;28.60;63.80;;;;;;4945764;28;96516;-77
2023/08/15 11:21:42;;;;;;;4.97;0.95;;;28.60;65.80;;;;;;4959345;28;92774;-76
2023/08/15 11:24:10;;;;;;;4.32;0.93;;;28.60;63.80;;;;;;4971670;28;92963;-77
2023/08/15 11:26:36;;;;;;;4.80;1.08;;;28.60;63.90;;;;;;4955883;28;92695;-77
2023/08/15 11:29:02;;;;;;;3.72;1.15;;;28.60;63.30;;;;;;4965618;28;93672;-76
2023/08/15 11:31:31;;;;;;;3.45;1.00;;;28.50;62.80;;;;;;4964789;28;96361;-78
2023/08/15 11:33:59;;;;;;;5.95;0.90;;;28.30;63.40;;;;;;4951144;28;92714;-77
2023/08/15 11:36:25;;;;;;;6.47;1.02;;;28.30;64.00;;;;;;4965360;28;94195;-78
2023/08/15 11:38:51;;;;;;;2.85;1.10;;;28.20;63.90;;;;;;4967628;28;97555;-77
2023/08/15 11:41:18;;;;;;;4.78;0.90;;;28.20;61.70;;;;;;4966206;28;94321;-78
2023/08/15 11:43:44;;;;;;;4.57;1.20;;;28.20;62.00;;;;;;4965236;28;93002;-79
2023/08/15 11:46:10;;;;;;;6.95;0.90;;;28.10;62.90;;;;;;4964427;28;93117;-79
2023/08/15 11:48:36;;;;;;;3.53;0.90;;;28.00;61.90;;;;;;4964200;28;94127;-78
2023/08/15 11:51:02;;;;;;;4.30;0.90;;;28.10;62.00;;;;;;4965944;28;92916;-78
2023/08/15 11:53:28;;;;;;;5.90;1.38;;;28.10;63.80;;;;;;4948103;28;92930;-79
2023/08/15 11:55:54;;;;;;;4.40;1.13;;;28.30;64.00;;;;;;4963966;28;91475;-79
2023/08/15 11:58:30;;;;;;;4.65;0.82;;;28.50;62.60;;;;;;4946327;28;96463;-79
2023/08/15 12:01:07;;;;;;;5.28;1.40;;;28.60;61.20;;;;;;4964502;28;93323;-78
2023/08/15 12:03:33;;;;;;;5.30;1.10;;;28.60;61.00;;;;;;4946557;28;93535;-78
2023/08/15 12:06:01;;;;;;;7.75;1.20;;;28.60;62.30;;;;;;4967561;28;92606;-78
2023/08/15 12:08:28;;;;;;;9.43;1.90;;;28.60;59.70;;;;;;4966556;28;95225;-79
2023/08/15 12:10:56;;;;;;;7.22;1.27;;;28.60;61.30;;;;;;4963640;28;96129;-78
2023/08/15 12:13:32;;;;;;;2.78;0.90;;;28.70;61.10;;;;;;4965872;28;92384;-79
2023/08/15 12:15:59;;;;;;;2.53;1.05;;;28.70;59.60;;;;;;4955554;28;92860;-78
2023/08/15 12:18:25;;;;;;;7.13;1.25;;;28.80;63.00;;;;;;4966602;28;93614;-78
2023/08/15 12:20:50;;;;;;;5.80;1.20;;;29.10;61.90;;;;;;4965999;28;92861;-78
2023/08/15 12:23:16;;;;;;;6.72;1.35;;;29.20;61.30;;;;;;4946849;28;92799;-78
2023/08/15 12:25:42;;;;;;;2.88;0.77;;;29.40;60.20;;;;;;4947477;28;92627;-79
2023/08/15 12:28:08;;;;;;;7.25;1.27;;;29.60;61.50;;;;;;4965117;28;94622;-77
2023/08/15 12:30:34;;;;;;;3.22;1.00;;;29.80;59.90;;;;;;4963043;28;97071;-78
2023/08/15 12:33:01;;;;;;;4.80;1.10;;;30.00;60.60;;;;;;4964793;28;92612;-78
2023/08/15 12:35:27;;;;;;;8.05;1.13;;;30.10;57.60;;;;;;4946839;28;92619;-79
2023/08/15 12:37:52;;;;;;;4.75;1.13;;;30.10;58.90;;;;;;4947803;28;97008;-78
2023/08/15 12:40:18;;;;;;;4.03;1.00;;;30.30;57.90;;;;;;4965265;28;92556;-78
2023/08/15 12:42:44;;;;;;;2.15;1.02;;;30.40;56.30;;;;;;4965398;28;92972;-79